Terminal Aerodrome Forecast
Issued by NWS Austin/San Antonio, TX

Home | Current Version | Previous Version | Text Only | Print | Product List | Glossary On
Versions: 1 2 3 4 5 6 7 8 9 10 11 12 13 14 15 16
000
FTUS44 KEWX 191140
TAFDRT
TAF
KDRT 191140Z 1912/2012 10009KT P6SM OVC022
     FM191400 30005KT P6SM BKN012 BKN015
     FM191800 31007KT P6SM BKN050 BKN250
     FM200100 05003KT P6SM -SHRA OVC040
     FM201000 32007KT P6SM OVC050=

USA.gov is the U.S. government's official web portal to all federal, state and local government web resources and services.